Pinegrove, Alabama
Current Conditions -  °F | °C
As of 6:53 PM on Thursday 18 Dec 2014 (Local Time) from KBFM Reporting Station
Overcast Overcast  
Wind Chill: 57°   Ceiling: 10000
Heat Index: 57°   Visibility: 10mi
Dew Point: 48°   Wind: 7mph
Humidity: 72%   Direction: 10°N
Pressure: 30.16"   Gusts: NA
Location:  30.8772°N, 87.7146°W
Report Text: KBFM 190053Z 01006KT 10SM OVC100 14/09 A3016 RMK AO2 SLP213 T01390089
Loading
Personal Weather Stations






























Interactive Weather Map New forecast layout! Learn more

10-Day Weather Forecast

Advertisements
Track Severe Weather on mobile